Flight Number: EUR3074 Duration: 11:00
Departure: Madrid / Barajas (LEMD) at 07:00 Distance: 4721 Nm
Arrival: Quito Mariscal Sucre (SEQU) at 18:00 Equipment: B777

Weather Information
Madrid / Barajas, Spain (LEMD) 40-27N 003-33W 582M Nov 18, 2017 - 06:30 AM EST / 2017.11.18 1130 UTC
Wind: from the SSW (200 degrees) at 3 MPH (3 KT):0
Visibility: greater than 7 mile(s):0 Temperature: 62 F (17 C) Dew Point: 35 F (2 C) Relative Humidity: 36% Pressure (altimeter): 30.15 in. Hg (1021 hPa)
ob: LEMD 181130Z 20003KT CAVOK 17/02 Q1021 NOSIG cycle: 11
Sunrise: 07:08 Sunset: 16:50 (UTC)

Quito / Mariscal Sucre, Ecuador (SEQU) 00-09S 078-29W 2812M Nov 15, 2015 - 09:00 PM EST / 2015.11.16 0200 UTC
Wind: from the N (350 degrees) at 6 MPH (5 KT):0
Visibility: 3 mile(s):0
Sky conditions: mostly cloudy Temperature: 57 F (14 C) Dew Point: 55 F (13 C) Relative Humidity: 93% Pressure (altimeter): 30.30 in. Hg (1026 hPa)
ob: SEQU 160200Z 35005KT 6000 FEW003 SCT030 BKN300 14/13 Q1026 cycle: 2
Sunrise: 10:57 Sunset: 23:00 (UTC)

TAF:2017/07/08 00:00 0000158800 299 SMEQ01 SEQU 080000 AAXX 08004 84050 11465 80000 10234 20228 69941 75144 8672/ 333 10266 555 10004 30096

This route has never been flown.

Route map